createdAt,value
2022-12-20T00:00:51.644Z,100269.00
2022-12-20T00:03:18.623Z,100263.41
2022-12-20T00:05:45.562Z,100270.94
2022-12-20T00:08:12.433Z,100264.25
2022-12-20T00:10:40.363Z,100271.78
2022-12-20T00:13:07.492Z,100265.38
2022-12-20T00:15:34.550Z,100271.78
2022-12-20T00:18:01.786Z,100273.72
2022-12-20T00:20:28.767Z,100265.38
2022-12-20T00:22:55.919Z,100264.25
2022-12-20T00:25:22.935Z,100265.38
2022-12-20T00:27:49.887Z,100262.59
2022-12-20T00:30:17.350Z,100248.97
2022-12-20T00:32:44.841Z,100254.53
2022-12-20T00:35:11.862Z,100257.31
2022-12-20T00:37:38.795Z,100255.38
2022-12-20T00:40:06.583Z,100250.91
2022-12-20T00:42:33.629Z,100243.09
2022-12-20T00:45:00.518Z,100235.88
2022-12-20T00:47:27.343Z,100244.22
2022-12-20T00:49:54.114Z,100238.66
2022-12-20T00:52:20.978Z,100229.16
2022-12-20T00:54:47.906Z,100239.47
2022-12-20T00:57:14.807Z,100233.59
2022-12-20T00:59:41.667Z,100236.66
2022-12-20T01:02:08.724Z,100229.16
2022-12-20T01:04:35.775Z,100241.13
2022-12-20T01:07:02.773Z,100233.59
2022-12-20T01:09:29.649Z,100241.97
2022-12-20T01:11:56.453Z,100238.66
2022-12-20T01:14:23.275Z,100233.09
2022-12-20T01:16:50.195Z,100234.72
2022-12-20T01:19:18.150Z,100240.28
2022-12-20T01:21:45.342Z,100239.47
2022-12-20T01:24:13.196Z,100239.47
2022-12-20T01:26:40.020Z,100223.56
2022-12-20T01:29:06.969Z,100231.09
2022-12-20T01:31:35.060Z,100220.78
2022-12-20T01:34:02.337Z,100236.66
2022-12-20T01:36:31.732Z,100230.28
2022-12-20T01:38:59.494Z,100237.50
2022-12-20T01:41:27.772Z,100225.25
2022-12-20T01:43:55.592Z,100218.00
2022-12-20T01:46:23.697Z,100232.78
2022-12-20T01:48:54.486Z,100224.72
2022-12-20T01:51:21.594Z,100224.13
2022-12-20T01:53:51.464Z,100218.56
2022-12-20T01:56:18.265Z,100212.97
2022-12-20T01:58:49.174Z,100208.53
2022-12-20T02:01:16.011Z,100213.25
2022-12-20T02:03:43.616Z,100195.72
2022-12-20T02:06:13.584Z,100201.28
2022-12-20T02:08:40.477Z,100207.69
2022-12-20T02:11:10.384Z,100204.06
2022-12-20T02:13:40.241Z,100207.69
2022-12-20T02:16:07.063Z,100210.47
2022-12-20T02:18:34.291Z,100212.13
2022-12-20T02:21:05.687Z,100200.16
2022-12-20T02:23:33.794Z,100198.22
2022-12-20T02:26:03.983Z,100205.44
2022-12-20T02:28:33.873Z,100195.13
2022-12-20T02:31:03.262Z,100201.00
2022-12-20T02:33:30.209Z,100197.38
2022-12-20T02:35:57.123Z,100194.59
2022-12-20T02:38:25.824Z,100202.13
2022-12-20T02:40:55.038Z,100183.44
2022-12-20T02:43:25.922Z,100173.97
2022-12-20T02:45:53.618Z,100184.00
2022-12-20T02:48:21.599Z,100182.31
2022-12-20T02:50:51.957Z,100188.72
2022-12-20T02:53:18.941Z,100172.00
2022-12-20T02:55:49.222Z,100188.72
2022-12-20T02:58:22.783Z,100167.56
2022-12-20T03:00:51.721Z,100167.56
2022-12-20T03:03:21.761Z,100164.47
2022-12-20T03:05:49.425Z,100162.81
2022-12-20T03:08:16.500Z,100160.03
2022-12-20T03:10:43.997Z,100159.75
2022-12-20T03:13:10.822Z,100155.81
2022-12-20T03:15:37.792Z,100134.66
2022-12-20T03:18:05.277Z,100147.75
2022-12-20T03:20:32.122Z,100137.44
2022-12-20T03:22:58.896Z,100153.34
2022-12-20T03:25:25.843Z,100150.56
2022-12-20T03:27:52.667Z,100138.25
2022-12-20T03:30:19.570Z,100138.25
2022-12-20T03:32:46.581Z,100132.69
2022-12-20T03:35:13.427Z,100129.88
2022-12-20T03:37:40.240Z,100132.69
2022-12-20T03:40:07.943Z,100124.31
2022-12-20T03:42:34.827Z,100135.47
2022-12-20T03:45:01.850Z,100131.88
2022-12-20T03:47:29.058Z,100123.19
2022-12-20T03:49:55.871Z,100121.25
2022-12-20T03:52:22.780Z,100121.25
2022-12-20T03:54:49.840Z,100120.41
2022-12-20T03:57:16.779Z,100124.03
2022-12-20T03:59:43.935Z,100114.84
2022-12-20T04:02:10.979Z,100115.94
2022-12-20T04:04:37.956Z,100111.22
2022-12-20T04:07:04.787Z,100113.16
2022-12-20T04:09:31.604Z,100106.78
2022-12-20T04:11:58.403Z,100117.63
2022-12-20T04:14:25.221Z,100105.13
2022-12-20T04:16:52.042Z,100104.81
2022-12-20T04:19:18.970Z,100112.03
2022-12-20T04:21:46.066Z,100112.38
2022-12-20T04:24:12.911Z,100117.94
2022-12-20T04:26:39.788Z,100110.38
2022-12-20T04:29:06.606Z,100106.78
2022-12-20T04:31:33.647Z,100106.78
2022-12-20T04:34:00.563Z,100105.97
2022-12-20T04:36:27.442Z,100115.66
2022-12-20T04:38:54.347Z,100107.59
2022-12-20T04:41:24.374Z,100090.06
2022-12-20T04:43:52.194Z,100090.88
2022-12-20T04:46:19.534Z,100090.88
2022-12-20T04:48:57.260Z,100085.31
2022-12-20T04:51:25.574Z,100088.91
2022-12-20T04:53:52.330Z,100079.44
2022-12-20T04:56:21.636Z,100081.38
2022-12-20T04:58:49.382Z,100074.16
2022-12-20T05:01:36.160Z,100067.47
2022-12-20T05:04:03.245Z,100082.22
2022-12-20T05:06:30.132Z,100085.84
2022-12-20T05:08:56.954Z,100071.38
2022-12-20T05:11:23.767Z,100070.25
2022-12-20T05:13:50.639Z,100076.66
2022-12-20T05:16:17.486Z,100078.94
2022-12-20T05:18:48.863Z,100080.88
2022-12-20T05:21:19.831Z,100098.44
2022-12-20T05:23:50.004Z,100087.28
2022-12-20T05:26:17.941Z,100085.63
2022-12-20T05:28:45.094Z,100083.66
2022-12-20T05:31:12.013Z,100093.38
2022-12-20T05:33:38.907Z,100086.13
2022-12-20T05:36:06.091Z,100086.13
2022-12-20T05:38:32.904Z,100086.97
2022-12-20T05:40:59.811Z,100084.19
2022-12-20T05:43:26.626Z,100086.97
2022-12-20T05:45:53.754Z,100085.84
2022-12-20T05:48:20.810Z,100089.75
2022-12-20T05:50:47.963Z,100081.94
2022-12-20T05:53:15.492Z,100089.47
2022-12-20T05:55:45.369Z,100081.94
2022-12-20T05:58:13.889Z,100081.09
2022-12-20T06:00:41.522Z,100091.13
2022-12-20T06:03:09.804Z,100088.63
2022-12-20T06:05:37.181Z,100101.72
2022-12-20T06:08:04.807Z,100103.41
2022-12-20T06:10:31.907Z,100113.72
2022-12-20T06:12:58.851Z,100102.56
2022-12-20T06:15:25.708Z,100105.63
2022-12-20T06:17:52.506Z,100110.94
2022-12-20T06:20:19.418Z,100112.88
2022-12-20T06:22:46.257Z,100109.25
2022-12-20T06:25:15.335Z,100126.31
2022-12-20T06:27:42.507Z,100138.25
2022-12-20T06:30:10.114Z,100129.09
2022-12-20T06:32:37.347Z,100153.00
2022-12-20T06:35:04.648Z,100170.56
2022-12-20T06:37:32.372Z,100174.19
2022-12-20T06:40:00.284Z,100200.09
2022-12-20T06:42:27.115Z,100199.28
2022-12-20T06:44:54.424Z,100197.59
2022-12-20T06:47:21.428Z,100202.34
2022-12-20T06:49:48.286Z,100213.50
2022-12-20T06:52:15.140Z,100219.06
2022-12-20T06:54:41.942Z,100224.63
2022-12-20T06:57:09.070Z,100234.16
2022-12-20T06:59:35.867Z,100234.97
2022-12-20T07:02:25.310Z,100242.50
2022-12-20T07:04:54.361Z,100250.88
2022-12-20T07:07:21.194Z,100251.69
2022-12-20T07:09:48.138Z,100269.22
2022-12-20T07:12:14.980Z,100274.00
2022-12-20T07:14:41.817Z,100277.59
2022-12-20T07:17:08.807Z,100281.53
2022-12-20T07:19:36.649Z,100286.25
2022-12-20T07:22:04.477Z,100282.66
2022-12-20T07:24:31.446Z,100296.56
2022-12-20T07:26:58.604Z,100300.19
2022-12-20T07:29:26.162Z,100304.94
2022-12-20T07:31:53.303Z,100320.81
2022-12-20T07:34:20.410Z,100318.88
2022-12-20T07:36:47.429Z,100328.91
2022-12-20T07:39:14.486Z,100326.41
2022-12-20T07:41:41.311Z,100331.97
2022-12-20T07:44:08.495Z,100323.59
2022-12-20T07:46:35.442Z,100328.34
2022-12-20T07:49:02.378Z,100335.88
2022-12-20T07:51:31.585Z,100336.72
2022-12-20T07:54:00.891Z,100341.44
2022-12-20T07:56:29.064Z,100343.13
2022-12-20T07:58:59.707Z,100344.22
2022-12-20T08:01:28.636Z,100362.06
2022-12-20T08:03:58.985Z,100366.84
2022-12-20T08:06:26.242Z,100370.44
2022-12-20T08:08:55.198Z,100366.00
2022-12-20T08:11:23.275Z,100363.22
2022-12-20T08:13:55.736Z,100378.78
2022-12-20T08:16:24.956Z,100386.63
2022-12-20T08:18:51.889Z,100406.13
2022-12-20T08:21:19.484Z,100412.53
2022-12-20T08:23:46.403Z,100415.31
2022-12-20T08:26:13.242Z,100413.66
2022-12-20T08:28:40.128Z,100412.81
2022-12-20T08:31:08.027Z,100419.22
2022-12-20T08:33:36.036Z,100421.19
2022-12-20T08:36:05.477Z,100431.50
2022-12-20T08:38:33.021Z,100436.22
2022-12-20T08:41:02.954Z,100439.03
2022-12-20T08:43:30.638Z,100452.94
2022-12-20T08:45:57.654Z,100450.16
2022-12-20T08:48:24.666Z,100452.13
2022-12-20T08:50:54.709Z,100448.22
2022-12-20T08:53:21.657Z,100466.03
2022-12-20T08:55:48.725Z,100469.97
2022-12-20T08:58:16.179Z,100469.16
2022-12-20T09:00:43.044Z,100469.16
2022-12-20T09:03:11.962Z,100470.25
2022-12-20T09:05:45.091Z,100484.19
2022-12-20T09:08:12.053Z,100485.31
2022-12-20T09:10:38.928Z,100488.94
2022-12-20T09:13:05.848Z,100481.69
2022-12-20T09:15:34.714Z,100492.84
2022-12-20T09:18:02.231Z,100498.41
2022-12-20T09:20:29.510Z,100511.50
2022-12-20T09:22:57.031Z,100514.28
2022-12-20T09:25:24.204Z,100517.91
2022-12-20T09:27:51.197Z,100518.22
2022-12-20T09:30:18.276Z,100531.00
2022-12-20T09:32:46.092Z,100520.16
2022-12-20T09:35:16.564Z,100526.84
2022-12-20T09:37:46.248Z,100530.47
2022-12-20T09:40:18.047Z,100539.66
2022-12-20T09:42:45.294Z,100542.72
2022-12-20T09:45:19.841Z,100544.41
2022-12-20T09:47:46.880Z,100545.53
2022-12-20T09:50:17.250Z,100541.63
2022-12-20T09:52:47.280Z,100547.19
2022-12-20T09:55:24.478Z,100549.97
2022-12-20T09:57:52.713Z,100550.25
2022-12-20T10:00:20.130Z,100559.44
2022-12-20T10:03:02.101Z,100571.44
2022-12-20T10:05:41.526Z,100569.75
2022-12-20T10:08:12.078Z,100568.09
2022-12-20T10:10:42.204Z,100575.34
2022-12-20T10:13:12.126Z,100565.84
2022-12-20T10:15:41.645Z,100575.06
2022-12-20T10:18:11.939Z,100569.75
2022-12-20T10:20:47.389Z,100581.75
2022-12-20T10:23:18.008Z,100577.00
2022-12-20T10:25:46.606Z,100584.53
2022-12-20T10:28:15.770Z,100580.63
2022-12-20T10:30:43.469Z,100566.69
2022-12-20T10:33:17.655Z,100569.47
2022-12-20T10:35:44.611Z,100572.28
2022-12-20T10:38:32.120Z,100570.31
2022-12-20T10:44:07.710Z,100561.13
2022-12-20T10:46:38.401Z,100565.59
2022-12-20T10:49:08.378Z,100564.75
2022-12-20T10:51:35.250Z,100563.63
2022-12-20T10:54:04.232Z,100557.22
2022-12-20T10:56:32.290Z,100560.84
2022-12-20T10:58:59.752Z,100561.38
2022-12-20T11:01:28.661Z,100560.53
2022-12-20T11:03:58.104Z,100566.94
2022-12-20T11:06:27.751Z,100561.38
2022-12-20T11:09:12.720Z,100563.88
2022-12-20T11:11:39.692Z,100560.25
2022-12-20T11:14:14.366Z,100565.00
2022-12-20T11:16:42.011Z,100561.94
2022-12-20T11:19:12.024Z,100569.16
2022-12-20T11:21:41.989Z,100569.97
2022-12-20T11:24:17.723Z,100573.59
2022-12-20T11:26:47.723Z,100575.28
2022-12-20T11:29:14.898Z,100572.50
2022-12-20T11:31:44.844Z,100574.16
2022-12-20T11:34:14.825Z,100577.78
2022-12-20T11:39:26.768Z,100581.41
2022-12-20T11:41:56.682Z,100589.47
2022-12-20T11:44:27.783Z,100593.09
2022-12-20T11:46:58.068Z,100595.88
2022-12-20T11:49:28.184Z,100588.34
2022-12-20T11:51:58.083Z,100591.97
2022-12-20T11:54:27.982Z,100584.44
2022-12-20T11:56:58.797Z,100582.50
2022-12-20T11:59:28.777Z,100584.13
2022-12-20T12:01:58.821Z,100580.56
2022-12-20T12:04:27.905Z,100582.50
2022-12-20T12:07:02.064Z,100575.78
2022-12-20T12:09:32.119Z,100572.19
2022-12-20T12:12:07.874Z,100574.66
2022-12-20T12:14:42.200Z,100572.72
2022-12-20T12:17:13.076Z,100572.72
2022-12-20T12:19:42.538Z,100567.13
2022-12-20T12:22:13.875Z,100563.25
2022-12-20T12:24:42.904Z,100564.06
2022-12-20T12:27:16.394Z,100564.06
2022-12-20T12:29:43.495Z,100552.94
2022-12-20T12:32:17.702Z,100557.38
2022-12-20T12:34:46.024Z,100541.78
2022-12-20T12:37:14.424Z,100547.88
2022-12-20T12:39:44.500Z,100550.66
2022-12-20T12:42:14.555Z,100547.88
2022-12-20T12:44:47.326Z,100546.75
2022-12-20T12:47:17.841Z,100546.50
2022-12-20T12:49:48.883Z,100554.84
2022-12-20T12:52:18.948Z,100550.94
2022-12-20T12:54:45.990Z,100550.13
2022-12-20T12:57:16.099Z,100555.69
2022-12-20T12:59:46.243Z,100556.53
2022-12-20T13:02:15.258Z,100555.38
2022-12-20T13:04:45.671Z,100553.41
2022-12-20T13:07:15.684Z,100556.22
2022-12-20T13:09:43.308Z,100552.31
2022-12-20T13:12:13.451Z,100566.25
2022-12-20T13:14:40.734Z,100557.88
2022-12-20T13:17:13.156Z,100555.09
2022-12-20T13:19:45.209Z,100560.66
2022-12-20T13:22:12.663Z,100555.94
2022-12-20T13:24:42.728Z,100556.78
2022-12-20T13:27:12.702Z,100567.09
2022-12-20T13:29:51.383Z,100569.88
2022-12-20T13:32:21.327Z,100563.47
2022-12-20T13:34:51.252Z,100569.88
2022-12-20T13:37:21.240Z,100561.22
2022-12-20T13:39:48.582Z,100560.38
2022-12-20T13:42:20.938Z,100553.97
2022-12-20T13:44:48.797Z,100552.03
2022-12-20T13:47:17.180Z,100550.06
2022-12-20T13:49:44.246Z,100561.22
2022-12-20T13:52:32.499Z,100555.66
2022-12-20T13:55:01.081Z,100557.59
2022-12-20T13:57:28.550Z,100560.38
2022-12-20T14:00:03.497Z,100564.00
2022-12-20T14:02:37.026Z,100565.66
2022-12-20T14:05:08.307Z,100568.44
2022-12-20T14:07:35.344Z,100562.88
2022-12-20T14:10:02.962Z,100564.00
2022-12-20T14:12:36.435Z,100561.22
2022-12-20T14:15:03.958Z,100563.19
2022-12-20T14:17:32.568Z,100554.81
2022-12-20T14:20:02.648Z,100564.81
2022-12-20T14:22:29.725Z,100564.00
2022-12-20T14:24:56.865Z,100567.59
2022-12-20T14:27:24.232Z,100564.81
2022-12-20T14:29:52.751Z,100563.47
2022-12-20T14:32:20.304Z,100560.66
2022-12-20T14:34:48.022Z,100560.66
2022-12-20T14:37:17.995Z,100568.19
2022-12-20T14:39:48.053Z,100565.41
2022-12-20T14:42:19.128Z,100582.13
2022-12-20T14:44:47.707Z,100586.88
2022-12-20T14:47:17.223Z,100583.56
2022-12-20T14:49:47.249Z,100584.41
2022-12-20T14:52:15.685Z,100591.09
2022-12-20T14:57:39.442Z,100593.03
2022-12-20T15:00:09.580Z,100593.31
2022-12-20T15:02:39.798Z,100596.94
2022-12-20T15:05:26.774Z,100578.25
2022-12-20T15:07:53.879Z,100588.56
2022-12-20T15:10:20.847Z,100578.53
2022-12-20T15:12:47.784Z,100572.97
2022-12-20T15:15:30.001Z,100570.19
2022-12-20T15:17:57.222Z,100566.88
2022-12-20T15:20:24.097Z,100570.75
2022-12-20T15:22:51.082Z,100565.19
2022-12-20T15:25:18.138Z,100575.50
2022-12-20T15:27:45.227Z,100581.34
2022-12-20T15:30:14.177Z,100587.75
2022-12-20T15:32:54.570Z,100590.28
2022-12-20T15:35:22.776Z,100593.34
2022-12-20T15:37:49.681Z,100586.13
2022-12-20T15:40:16.717Z,100586.13
2022-12-20T15:42:44.225Z,100593.34
2022-12-20T15:45:14.142Z,100595.59
2022-12-20T15:47:41.050Z,100600.34
2022-12-20T15:50:08.818Z,100591.97
2022-12-20T15:52:35.764Z,100595.03
2022-12-20T15:55:02.700Z,100598.66
2022-12-20T15:57:30.439Z,100602.56
2022-12-20T16:00:00.921Z,100596.16
2022-12-20T16:02:29.410Z,100605.34
2022-12-20T16:04:56.954Z,100605.34
2022-12-20T16:07:24.410Z,100618.44
2022-12-20T16:09:51.479Z,100620.44
2022-12-20T16:12:20.416Z,100625.44
2022-12-20T16:14:47.848Z,100627.13
2022-12-20T16:17:15.631Z,100618.75
2022-12-20T16:19:43.470Z,100623.50
2022-12-20T16:22:13.484Z,100624.59
2022-12-20T16:24:40.445Z,100632.13
2022-12-20T16:27:07.420Z,100631.28
2022-12-20T16:29:34.786Z,100634.91
2022-12-20T16:32:01.961Z,100638.81
2022-12-20T16:34:28.992Z,100644.38
2022-12-20T16:36:55.954Z,100647.19
2022-12-20T16:39:23.297Z,100655.53
2022-12-20T16:41:50.158Z,100658.63
2022-12-20T16:44:17.431Z,100653.06
2022-12-20T16:46:45.882Z,100652.22
2022-12-20T16:49:19.805Z,100653.88
2022-12-20T16:51:48.410Z,100659.75
2022-12-20T16:54:20.954Z,100654.16
2022-12-20T16:56:49.629Z,100657.78
2022-12-20T16:59:19.859Z,100653.06
2022-12-20T17:01:49.292Z,100654.44
2022-12-20T17:04:17.769Z,100647.75
2022-12-20T17:06:45.089Z,100645.25
2022-12-20T17:09:12.513Z,100650.81
2022-12-20T17:11:39.499Z,100644.44
2022-12-20T17:14:12.320Z,100642.47
2022-12-20T17:16:40.117Z,100646.09
2022-12-20T17:19:07.034Z,100647.22
2022-12-20T17:24:06.790Z,100648.34
2022-12-20T17:26:34.324Z,100657.81
2022-12-20T17:29:01.431Z,100662.28
2022-12-20T17:31:28.916Z,100662.28
2022-12-20T17:33:56.572Z,100662.53
2022-12-20T17:36:23.425Z,100664.22
2022-12-20T17:38:51.117Z,100665.06
2022-12-20T17:41:22.101Z,100668.13
2022-12-20T17:43:49.177Z,100669.78
2022-12-20T17:46:16.082Z,100663.66
2022-12-20T17:48:44.099Z,100672.84
2022-12-20T17:51:14.598Z,100680.38
2022-12-20T17:53:41.563Z,100680.38
2022-12-20T17:56:12.659Z,100675.63
2022-12-20T17:58:39.623Z,100675.94
2022-12-20T18:01:06.574Z,100674.81
2022-12-20T18:04:02.860Z,100683.47
2022-12-20T18:06:21.025Z,100683.47
2022-12-20T18:08:50.075Z,100677.88
2022-12-20T18:11:17.697Z,100680.94
2022-12-20T18:13:45.605Z,100683.75
2022-12-20T18:16:13.554Z,100676.50
2022-12-20T18:18:40.639Z,100677.31
2022-12-20T18:21:08.844Z,100678.16
2022-12-20T18:23:36.671Z,100678.44
2022-12-20T18:26:13.007Z,100681.78
2022-12-20T18:28:40.703Z,100678.44
2022-12-20T18:31:08.764Z,100669.25
2022-12-20T18:33:35.909Z,100670.09
2022-12-20T18:36:04.569Z,100682.06
2022-12-20T18:38:32.162Z,100674.81
2022-12-20T18:41:00.328Z,100686.78
2022-12-20T18:43:27.944Z,100682.38
2022-12-20T18:45:55.345Z,100680.38
2022-12-20T18:48:23.914Z,100686.78
2022-12-20T18:50:50.802Z,100685.16
2022-12-20T18:53:17.848Z,100687.09
2022-12-20T18:55:44.762Z,100687.09
2022-12-20T18:58:11.619Z,100691.00
2022-12-20T19:00:41.344Z,100691.00
2022-12-20T19:03:08.424Z,100689.88
2022-12-20T19:05:35.605Z,100691.00
2022-12-20T19:08:02.494Z,100692.94
2022-12-20T19:10:32.324Z,100692.94
2022-12-20T19:13:05.263Z,100699.63
2022-12-20T19:15:32.762Z,100699.63
2022-12-20T19:17:59.718Z,100703.53
2022-12-20T19:20:26.600Z,100704.38
2022-12-20T19:22:53.816Z,100692.38
2022-12-20T19:25:21.547Z,100703.53
2022-12-20T19:27:48.425Z,100706.31
2022-12-20T19:30:15.645Z,100703.53
2022-12-20T19:32:42.668Z,100707.44
2022-12-20T19:35:45.056Z,100706.31
2022-12-20T19:37:56.746Z,100704.66
2022-12-20T19:40:23.750Z,100709.69
2022-12-20T19:42:50.662Z,100722.50
2022-12-20T19:45:17.604Z,100711.34
2022-12-20T19:47:44.466Z,100716.91
2022-12-20T19:52:52.621Z,100719.72
2022-12-20T19:55:19.581Z,100716.09
2022-12-20T19:57:46.859Z,100723.59
2022-12-20T20:00:14.161Z,100725.56
2022-12-20T20:02:41.131Z,100719.13
2022-12-20T20:05:14.645Z,100734.75
2022-12-20T20:07:42.906Z,100731.97
2022-12-20T20:10:10.109Z,100733.91
2022-12-20T20:12:38.538Z,100733.06
2022-12-20T20:15:05.829Z,100744.22
2022-12-20T20:17:32.693Z,100739.47
2022-12-20T20:19:59.569Z,100741.44
2022-12-20T20:22:26.467Z,100735.84
2022-12-20T20:24:53.378Z,100742.25
2022-12-20T20:27:20.280Z,100743.38
2022-12-20T20:29:49.427Z,100744.50
2022-12-20T20:32:16.373Z,100743.69
2022-12-20T20:34:43.281Z,100745.34
2022-12-20T20:37:10.208Z,100737.28
2022-12-20T20:39:37.106Z,100748.13
2022-12-20T20:42:04.085Z,100738.09
2022-12-20T20:44:30.957Z,100738.94
2022-12-20T20:46:57.889Z,100744.50
2022-12-20T20:49:24.841Z,100752.03
2022-12-20T20:51:51.738Z,100743.94
2022-12-20T20:54:18.628Z,100760.66
2022-12-20T20:56:45.549Z,100757.59
2022-12-20T20:59:17.446Z,100757.59
2022-12-20T21:01:45.426Z,100760.38
2022-12-20T21:04:12.343Z,100763.44
2022-12-20T21:06:41.936Z,100759.56
2022-12-20T21:09:09.810Z,100755.94
2022-12-20T21:11:37.354Z,100763.44
2022-12-20T21:14:04.353Z,100763.44
2022-12-20T21:16:31.460Z,100756.19
2022-12-20T21:18:59.254Z,100755.09
2022-12-20T21:21:26.723Z,100762.91
2022-12-20T21:23:54.404Z,100752.56
2022-12-20T21:26:22.242Z,100754.56
2022-12-20T21:28:49.220Z,100757.34
2022-12-20T21:31:17.585Z,100764.56
2022-12-20T21:33:46.288Z,100767.66
2022-12-20T21:36:14.583Z,100767.66
2022-12-20T21:38:41.929Z,100765.97
2022-12-20T21:41:11.215Z,100766.81
2022-12-20T21:43:38.262Z,100765.97
2022-12-20T21:48:47.222Z,100774.31
2022-12-20T21:51:15.498Z,100774.31
2022-12-20T21:53:44.597Z,100768.75
2022-12-20T21:56:11.687Z,100775.16
2022-12-20T21:58:38.585Z,100769.88
2022-12-20T22:01:08.366Z,100772.66
2022-12-20T22:03:36.027Z,100767.06
2022-12-20T22:06:02.931Z,100772.91
2022-12-20T22:08:29.991Z,100769.31
2022-12-20T22:11:00.419Z,100768.19
2022-12-20T22:13:27.922Z,100760.13
2022-12-20T22:15:55.251Z,100770.13
2022-12-20T22:18:22.578Z,100782.09
2022-12-20T22:20:49.550Z,100776.84
2022-12-20T22:23:16.545Z,100769.31
2022-12-20T22:25:43.524Z,100758.19
2022-12-20T22:28:10.503Z,100769.31
2022-12-20T22:30:40.483Z,100778.47
2022-12-20T22:33:07.543Z,100774.91
2022-12-20T22:35:34.849Z,100777.69
2022-12-20T22:38:02.244Z,100776.84
2022-12-20T22:40:29.163Z,100768.50
2022-12-20T22:42:56.054Z,100769.31
2022-12-20T22:45:23.265Z,100759.28
2022-12-20T22:47:50.265Z,100755.66
2022-12-20T22:50:17.406Z,100750.38
2022-12-20T22:52:44.642Z,100766.25
2022-12-20T22:55:12.549Z,100758.72
2022-12-20T22:57:39.490Z,100759.56
2022-12-20T23:00:07.102Z,100755.94
2022-12-20T23:02:34.203Z,100756.78
2022-12-20T23:05:01.413Z,100756.78
2022-12-20T23:07:28.294Z,100758.72
2022-12-20T23:09:55.231Z,100757.88
2022-12-20T23:12:25.337Z,100759.84
2022-12-20T23:15:00.247Z,100762.63
2022-12-20T23:17:32.418Z,100756.25
2022-12-20T23:20:02.533Z,100757.03
2022-12-20T23:22:32.638Z,100755.41
2022-12-20T23:24:59.528Z,100759.84
2022-12-20T23:27:26.746Z,100749.84
2022-12-20T23:29:53.662Z,100745.09
2022-12-20T23:32:20.605Z,100747.88
2022-12-20T23:34:47.652Z,100745.38
2022-12-20T23:37:14.474Z,100748.16
2022-12-20T23:39:41.581Z,100743.41
2022-12-20T23:42:08.712Z,100743.41
2022-12-20T23:44:35.697Z,100746.47
2022-12-20T23:47:02.631Z,100748.16
2022-12-20T23:49:29.468Z,100749.00
2022-12-20T23:51:56.351Z,100749.00
2022-12-20T23:54:23.165Z,100740.63
2022-12-20T23:56:50.058Z,100740.91
2022-12-20T23:59:17.087Z,100748.16
